KHUL/HUL METAR and TAF weather

Enter ICAO airport designator
Station Type Date Time Source
KHUL METAR 2020/05/29 17:53 UTC NOAA

KHUL 291753Z AUTO 21011G17KT 170V240 10SM SCT048 SCT060 29/19 A2978 RMK AO2 SLP082 T02940189 10294 20222 58022


Station Type Date Time Source
KHUL Decoded METAR 2020/05/29 17:53 UTC NOAA

HOULTON INT'L AIRPORT, ME, United States (KHUL) 46-07N 067-48W 150M
May 29, 2020 - 01:53 PM EDT / 2020.05.29 1753 UTC
Wind: from the SSW (210 degrees) at 13 MPH (11 KT) gusting to 20 MPH (17 KT) (direction variable):0
Visibility: 10 mile(s):0
Sky conditions: partly cloudy
Temperature: 84.9 F (29.4 C)
Dew Point: 66.0 F (18.9 C)
Relative Humidity: 53%
Pressure (altimeter): 29.78 in. Hg (1008 hPa)
Pressure tendency: 0.06 inches (2.2 hPa) lower than three hours ago
ob: KHUL 291753Z AUTO 21011G17KT 170V240 10SM SCT048 SCT060 29/19 A2978 RMK AO2 SLP082 T02940189 10294 20222 58022
cycle: 18

Station Type Date Time Source
KHUL TAF 2020/05/29 18:30 UTC NOAA

TAF KHUL 291728Z 2918/3018 22012G21KT P6SM BKN045
FM300200 20007KT P6SM VCTS SCT030CB BKN045 WS020/23035KT
FM300400 20006KT 6SM -SHRA VCTS SCT015CB OVC028 WS020/23035KT
FM300600 20007KT 6SM -SHRA OVC009
FM300900 19007KT 3SM -SHRA BR OVC005 WS020/23035KT
FM301400 21011KT 6SM -SHRA OVC012
FM301630 23012G20KT P6SM VCSH BKN025

Example: see airport list